createdAt,value
2017-07-08T00:01:04.068Z,7.30
2017-07-08T00:03:33.781Z,7.97
2017-07-08T00:06:04.135Z,7.80
2017-07-08T00:08:34.470Z,7.70
2017-07-08T00:11:04.338Z,8.33
2017-07-08T00:13:34.093Z,8.37
2017-07-08T00:16:03.967Z,8.60
2017-07-08T00:18:33.720Z,8.47
2017-07-08T00:21:02.878Z,9.17
2017-07-08T00:23:33.337Z,9.13
2017-07-08T00:26:03.326Z,8.83
2017-07-08T00:28:33.785Z,8.23
2017-07-08T00:31:03.722Z,9.33
2017-07-08T00:33:33.430Z,9.00
2017-07-08T00:36:03.221Z,10.30
2017-07-08T00:38:33.532Z,9.77
2017-07-08T00:41:03.286Z,9.30
2017-07-08T00:43:32.979Z,9.77
2017-07-08T00:46:02.656Z,10.20
2017-07-08T00:48:32.378Z,9.30
2017-07-08T00:51:02.109Z,10.90
2017-07-08T00:53:31.859Z,10.07
2017-07-08T00:56:01.537Z,10.33
2017-07-08T00:58:31.268Z,9.40
2017-07-08T01:01:00.589Z,10.43
2017-07-08T01:03:30.413Z,9.97
2017-07-08T01:06:00.209Z,10.77
2017-07-08T01:08:30.034Z,10.53
2017-07-08T01:11:00.082Z,10.10
2017-07-08T01:13:29.851Z,9.17
2017-07-08T01:16:00.157Z,10.13
2017-07-08T01:18:30.453Z,9.97
2017-07-08T01:21:00.226Z,9.67
2017-07-08T01:23:29.904Z,10.60
2017-07-08T01:25:58.922Z,11.77
2017-07-08T01:28:28.627Z,10.33
2017-07-08T01:30:58.395Z,10.73
2017-07-08T01:33:28.082Z,10.10
2017-07-08T01:35:57.766Z,11.27
2017-07-08T01:38:27.543Z,11.50
2017-07-08T01:41:02.541Z,11.07
2017-07-08T01:43:35.148Z,10.20
2017-07-08T01:46:04.886Z,11.00
2017-07-08T01:48:35.200Z,11.43
2017-07-08T01:51:05.027Z,10.57
2017-07-08T01:53:35.123Z,12.47
2017-07-08T01:56:04.115Z,12.70
2017-07-08T01:58:35.267Z,12.50
2017-07-08T02:01:04.955Z,14.47
2017-07-08T02:03:34.755Z,13.60
2017-07-08T02:06:04.500Z,13.60
2017-07-08T02:08:34.244Z,14.23
2017-07-08T02:11:04.081Z,14.77
2017-07-08T02:13:33.849Z,14.47
2017-07-08T02:16:03.742Z,16.67
2017-07-08T02:18:33.417Z,14.30
2017-07-08T02:21:03.201Z,16.60
2017-07-08T02:23:32.854Z,15.57
2017-07-08T02:26:02.707Z,16.53
2017-07-08T02:28:32.558Z,16.40
2017-07-08T02:31:02.441Z,16.80
2017-07-08T02:33:32.142Z,16.57
2017-07-08T02:36:01.836Z,16.20
2017-07-08T02:38:31.615Z,18.43
2017-07-08T02:41:01.284Z,17.03
2017-07-08T02:43:32.443Z,18.20
2017-07-08T02:46:02.114Z,17.17
2017-07-08T02:48:31.811Z,19.30
2017-07-08T02:51:01.466Z,18.50
2017-07-08T02:53:31.214Z,18.90
2017-07-08T02:56:00.890Z,17.37
2017-07-08T02:58:31.332Z,18.87
2017-07-08T03:01:01.078Z,16.17
2017-07-08T03:03:31.391Z,17.37
2017-07-08T03:06:01.197Z,15.90
2017-07-08T03:08:30.923Z,15.80
2017-07-08T03:11:00.638Z,15.40
2017-07-08T03:13:30.314Z,16.50
2017-07-08T03:16:00.044Z,17.40
2017-07-08T03:18:29.953Z,17.20
2017-07-08T03:20:59.620Z,17.83
2017-07-08T03:23:29.985Z,17.23
2017-07-08T03:25:59.700Z,19.00
2017-07-08T03:28:29.463Z,19.20
2017-07-08T03:30:59.156Z,18.70
2017-07-08T03:33:28.876Z,17.23
2017-07-08T03:35:59.155Z,17.67
2017-07-08T03:38:28.909Z,17.53
2017-07-08T03:40:58.651Z,16.07
2017-07-08T03:43:29.107Z,16.80
2017-07-08T03:45:58.895Z,17.80
2017-07-08T03:48:29.209Z,16.77
2017-07-08T03:50:58.918Z,16.37
2017-07-08T03:53:28.614Z,16.67
2017-07-08T03:55:58.311Z,17.00
2017-07-08T03:58:28.022Z,17.47
2017-07-08T04:00:57.738Z,15.87
2017-07-08T04:03:27.430Z,17.80
2017-07-08T04:05:57.094Z,19.27
2017-07-08T04:08:26.823Z,22.47
2017-07-08T04:10:56.495Z,21.37
2017-07-08T04:13:26.255Z,22.03
2017-07-08T04:15:56.683Z,22.77
2017-07-08T04:18:27.252Z,24.10
2017-07-08T04:20:57.436Z,24.60
2017-07-08T04:23:27.426Z,23.17
2017-07-08T04:25:57.106Z,23.23
2017-07-08T04:28:26.808Z,25.57
2017-07-08T04:30:56.584Z,24.87
2017-07-08T04:33:26.274Z,24.57
2017-07-08T04:35:56.032Z,25.90
2017-07-08T04:38:25.816Z,26.27
2017-07-08T04:40:58.794Z,25.03
2017-07-08T04:43:29.406Z,25.00
2017-07-08T04:45:59.306Z,26.10
2017-07-08T04:48:30.807Z,25.10
2017-07-08T04:51:02.393Z,24.93
2017-07-08T04:53:33.231Z,26.53
2017-07-08T04:56:04.629Z,26.63
2017-07-08T04:58:35.931Z,26.73
2017-07-08T05:01:06.925Z,25.37
2017-07-08T05:03:36.614Z,26.27
2017-07-08T05:06:06.394Z,26.80
2017-07-08T05:08:37.321Z,27.10
2017-07-08T05:11:08.673Z,29.33
2017-07-08T05:13:40.317Z,29.17
2017-07-08T05:16:11.694Z,28.30
2017-07-08T05:18:41.925Z,27.90
2017-07-08T05:21:11.597Z,27.97
2017-07-08T05:23:41.276Z,28.17
2017-07-08T05:26:11.055Z,27.47
2017-07-08T05:28:41.152Z,29.17
2017-07-08T05:31:10.987Z,28.93
2017-07-08T05:33:39.975Z,31.10
2017-07-08T05:36:09.698Z,29.97
2017-07-08T05:38:39.441Z,29.67
2017-07-08T05:41:09.874Z,30.67
2017-07-08T05:43:39.615Z,29.87
2017-07-08T05:46:09.530Z,28.97
2017-07-08T05:48:39.538Z,28.27
2017-07-08T05:51:09.226Z,28.50
2017-07-08T05:53:39.050Z,31.23
2017-07-08T05:56:09.431Z,30.30
2017-07-08T05:58:39.214Z,29.47
2017-07-08T06:01:09.567Z,27.60
2017-07-08T06:03:39.923Z,29.30
2017-07-08T06:06:09.668Z,26.23
2017-07-08T06:08:38.619Z,25.57
2017-07-08T06:11:08.352Z,24.80
2017-07-08T06:13:38.035Z,23.67
2017-07-08T06:16:07.778Z,23.77
2017-07-08T06:18:37.507Z,22.70
2017-07-08T06:21:07.291Z,20.97
2017-07-08T06:23:37.087Z,17.97
2017-07-08T06:26:06.468Z,18.07
2017-07-08T06:28:36.139Z,17.50
2017-07-08T06:31:05.966Z,16.10
2017-07-08T06:33:35.659Z,14.00
2017-07-08T06:36:05.425Z,14.73
2017-07-08T06:38:35.102Z,13.47
2017-07-08T06:41:04.867Z,15.10
2017-07-08T06:43:34.639Z,16.03
2017-07-08T06:46:04.531Z,14.27
2017-07-08T06:48:34.295Z,15.20
2017-07-08T06:51:04.661Z,12.57
2017-07-08T06:53:35.135Z,13.20
2017-07-08T06:56:04.540Z,14.80
2017-07-08T06:58:34.234Z,12.03
2017-07-08T07:01:04.030Z,13.67
2017-07-08T07:03:33.781Z,14.67
2017-07-08T07:06:03.610Z,15.60
2017-07-08T07:08:33.294Z,14.03
2017-07-08T07:11:03.058Z,14.30
2017-07-08T07:13:32.739Z,14.50
2017-07-08T07:16:10.740Z,13.27
2017-07-08T07:18:43.239Z,12.43
2017-07-08T07:21:13.067Z,15.50
2017-07-08T07:23:42.809Z,10.97
2017-07-08T07:26:12.711Z,13.00
2017-07-08T07:28:42.975Z,13.53
2017-07-08T07:31:13.252Z,13.23
2017-07-08T07:33:42.989Z,14.30
2017-07-08T07:36:12.742Z,13.23
2017-07-08T07:38:41.750Z,14.83
2017-07-08T07:41:11.525Z,14.60
2017-07-08T07:43:41.281Z,13.03
2017-07-08T07:46:11.404Z,12.60
2017-07-08T07:48:41.101Z,12.97
2017-07-08T07:51:10.818Z,12.60
2017-07-08T07:53:40.495Z,12.73
2017-07-08T07:56:10.267Z,10.87
2017-07-08T07:58:40.064Z,10.70
2017-07-08T08:03:39.355Z,12.85
2017-07-08T08:06:09.620Z,12.43
2017-07-08T08:08:39.362Z,11.63
2017-07-08T08:11:09.039Z,12.00
2017-07-08T08:13:38.727Z,13.20
2017-07-08T08:16:08.466Z,15.57
2017-07-08T08:18:37.794Z,15.00
2017-07-08T08:21:07.519Z,14.10
2017-07-08T08:23:37.917Z,13.10
2017-07-08T08:26:07.731Z,15.70
2017-07-08T08:28:37.542Z,17.00
2017-07-08T08:31:07.352Z,13.90
2017-07-08T08:33:37.127Z,15.07
2017-07-08T08:36:06.877Z,14.43
2017-07-08T08:38:36.391Z,17.70
2017-07-08T08:41:06.093Z,15.07
2017-07-08T08:43:35.769Z,16.20
2017-07-08T08:46:05.584Z,14.47
2017-07-08T08:48:35.247Z,13.87
2017-07-08T08:51:05.062Z,13.97
2017-07-08T08:53:34.401Z,13.20
2017-07-08T08:56:03.943Z,12.20
2017-07-08T08:58:33.871Z,15.20
2017-07-08T09:01:03.585Z,13.53
2017-07-08T09:03:34.763Z,13.00
2017-07-08T09:06:04.345Z,12.17
2017-07-08T09:08:33.909Z,12.70
2017-07-08T09:11:03.698Z,13.13
2017-07-08T09:13:33.369Z,13.50
2017-07-08T09:16:03.072Z,14.57
2017-07-08T09:18:32.984Z,13.70
2017-07-08T09:21:02.939Z,12.67
2017-07-08T09:23:32.642Z,11.80
2017-07-08T09:26:02.951Z,14.23
2017-07-08T09:28:32.681Z,12.83
2017-07-08T09:31:03.026Z,11.40
2017-07-08T09:33:32.723Z,12.90
2017-07-08T09:36:02.495Z,12.93
2017-07-08T09:38:31.549Z,11.00
2017-07-08T09:41:01.274Z,11.70
2017-07-08T09:43:30.967Z,11.87
2017-07-08T09:46:00.706Z,11.17
2017-07-08T09:48:30.432Z,12.00
2017-07-08T09:51:00.114Z,11.40
2017-07-08T09:53:29.875Z,11.03
2017-07-08T09:55:59.688Z,12.20
2017-07-08T09:58:29.386Z,10.93
2017-07-08T10:00:59.094Z,12.80
2017-07-08T10:03:33.205Z,11.10
2017-07-08T10:06:08.412Z,11.93
2017-07-08T10:08:38.143Z,11.00
2017-07-08T10:11:07.863Z,11.83
2017-07-08T10:13:37.544Z,12.50
2017-07-08T10:16:07.275Z,13.63
2017-07-08T10:18:36.821Z,14.27
2017-07-08T10:21:06.622Z,14.90
2017-07-08T10:23:36.947Z,14.80
2017-07-08T10:26:06.711Z,13.37
2017-07-08T10:28:37.376Z,14.77
2017-07-08T10:31:07.842Z,15.13
2017-07-08T10:33:37.583Z,15.97
2017-07-08T10:36:07.977Z,16.20
2017-07-08T10:38:37.667Z,15.57
2017-07-08T10:41:08.096Z,14.83
2017-07-08T10:43:38.272Z,15.93
2017-07-08T10:46:08.583Z,14.30
2017-07-08T10:48:38.307Z,14.20
2017-07-08T10:51:08.756Z,15.23
2017-07-08T10:53:38.462Z,14.07
2017-07-08T10:56:08.295Z,14.00
2017-07-08T10:58:38.074Z,13.60
2017-07-08T11:01:07.811Z,14.57
2017-07-08T11:03:37.608Z,13.17
2017-07-08T11:06:08.367Z,12.70
2017-07-08T11:08:38.050Z,14.30
2017-07-08T11:11:07.739Z,12.27
2017-07-08T11:13:37.442Z,13.73
2017-07-08T11:16:07.879Z,14.00
2017-07-08T11:18:38.331Z,14.00
2017-07-08T11:21:08.055Z,14.97
2017-07-08T11:23:37.789Z,14.80
2017-07-08T11:26:07.574Z,12.97
2017-07-08T11:28:37.435Z,11.93
2017-07-08T11:31:07.143Z,11.10
2017-07-08T11:33:36.930Z,11.20
2017-07-08T11:36:06.669Z,10.17
2017-07-08T11:38:36.435Z,11.50
2017-07-08T11:41:06.801Z,12.60
2017-07-08T11:43:38.330Z,11.77
2017-07-08T11:46:08.180Z,11.70
2017-07-08T11:48:38.932Z,10.37
2017-07-08T11:51:08.647Z,12.80
2017-07-08T11:53:38.405Z,12.67
2017-07-08T11:56:08.170Z,11.47
2017-07-08T11:58:37.876Z,12.63
2017-07-08T12:01:07.576Z,11.90
2017-07-08T12:03:37.375Z,12.47
2017-07-08T12:06:07.086Z,12.30
2017-07-08T12:08:36.814Z,11.93
2017-07-08T12:11:07.876Z,11.27
2017-07-08T12:13:38.368Z,11.50
2017-07-08T12:16:09.365Z,11.87
2017-07-08T12:18:39.572Z,10.60
2017-07-08T12:21:09.413Z,10.90
2017-07-08T12:23:39.164Z,10.97
2017-07-08T12:26:08.897Z,12.07
2017-07-08T12:28:38.574Z,10.13
2017-07-08T12:31:11.982Z,10.67
2017-07-08T12:33:44.467Z,12.50
2017-07-08T12:36:15.428Z,11.83
2017-07-08T12:38:46.561Z,11.00
2017-07-08T12:41:17.955Z,11.50
2017-07-08T12:43:49.327Z,11.50
2017-07-08T12:46:20.383Z,10.30
2017-07-08T12:48:51.366Z,10.50
2017-07-08T12:51:22.267Z,8.27
2017-07-08T12:53:52.422Z,8.50
2017-07-08T12:56:22.980Z,8.57
2017-07-08T12:58:54.335Z,9.10
2017-07-08T13:01:25.457Z,8.83
2017-07-08T13:03:56.280Z,7.70
2017-07-08T13:06:26.918Z,8.43
2017-07-08T13:08:57.910Z,8.60
2017-07-08T13:11:28.253Z,8.57
2017-07-08T13:13:59.535Z,8.60
2017-07-08T13:16:29.739Z,8.50
2017-07-08T13:19:00.765Z,8.83
2017-07-08T13:21:31.813Z,8.20
2017-07-08T13:24:02.852Z,8.63
2017-07-08T13:26:34.051Z,6.73
2017-07-08T13:29:05.872Z,7.10
2017-07-08T13:31:39.188Z,6.60
2017-07-08T13:34:10.929Z,8.90
2017-07-08T13:36:42.109Z,7.83
2017-07-08T13:39:12.247Z,7.07
2017-07-08T13:41:42.578Z,6.17
2017-07-08T13:44:13.805Z,6.93
2017-07-08T13:46:44.654Z,6.60
2017-07-08T13:49:16.047Z,7.00
2017-07-08T13:51:47.240Z,6.47
2017-07-08T13:54:18.194Z,6.43
2017-07-08T13:56:49.385Z,7.00
2017-07-08T13:59:20.160Z,6.80
2017-07-08T14:01:50.910Z,6.97
2017-07-08T14:04:21.669Z,6.70
2017-07-08T14:06:52.442Z,6.77
2017-07-08T14:09:23.318Z,6.20
2017-07-08T14:11:53.485Z,7.37
2017-07-08T14:14:23.938Z,6.50
2017-07-08T14:16:54.640Z,6.77
2017-07-08T14:19:25.963Z,6.83
2017-07-08T14:21:57.027Z,6.33
2017-07-08T14:24:29.180Z,6.83
2017-07-08T14:26:59.436Z,6.07
2017-07-08T14:29:29.830Z,5.90
2017-07-08T14:32:00.755Z,5.77
2017-07-08T14:34:33.972Z,5.43
2017-07-08T14:37:07.781Z,5.83
2017-07-08T14:39:40.957Z,5.90
2017-07-08T14:42:13.632Z,5.63
2017-07-08T14:44:45.445Z,5.63
2017-07-08T14:47:17.702Z,5.57
2017-07-08T14:49:50.162Z,6.13
2017-07-08T14:52:23.003Z,5.97
2017-07-08T14:54:55.237Z,5.60
2017-07-08T14:57:27.337Z,5.40
2017-07-08T15:00:02.467Z,6.00
2017-07-08T15:02:40.620Z,5.20
2017-07-08T15:05:19.361Z,4.93
2017-07-08T15:07:59.565Z,5.03
2017-07-08T15:10:36.512Z,4.87
2017-07-08T15:13:18.279Z,4.70
2017-07-08T15:15:51.007Z,6.47
2017-07-08T15:18:20.851Z,4.60
2017-07-08T15:20:50.533Z,4.70
2017-07-08T15:23:20.182Z,4.50
2017-07-08T15:25:49.907Z,4.30
2017-07-08T15:28:19.592Z,5.07
2017-07-08T15:30:49.338Z,4.30
2017-07-08T15:33:18.659Z,4.30
2017-07-08T15:35:48.460Z,4.27
2017-07-08T15:38:23.243Z,4.60
2017-07-08T15:40:58.799Z,4.10
2017-07-08T15:43:28.669Z,6.33
2017-07-08T15:45:58.391Z,4.70
2017-07-08T15:48:28.042Z,5.03
2017-07-08T15:50:57.787Z,5.37
2017-07-08T15:53:27.434Z,4.63
2017-07-08T15:55:57.223Z,4.30
2017-07-08T15:58:26.930Z,5.27
2017-07-08T16:00:57.170Z,5.03
2017-07-08T16:03:29.006Z,4.80
2017-07-08T16:06:00.962Z,5.50
2017-07-08T16:08:33.331Z,4.80
2017-07-08T16:11:05.477Z,5.03
2017-07-08T16:13:35.547Z,4.73
2017-07-08T16:16:07.799Z,4.20
2017-07-08T16:18:39.139Z,4.53
2017-07-08T16:21:10.910Z,4.40
2017-07-08T16:23:43.690Z,4.10
2017-07-08T16:26:13.957Z,5.27
2017-07-08T16:28:43.866Z,11.27
2017-07-08T16:31:13.544Z,7.70
2017-07-08T16:33:43.314Z,6.63
2017-07-08T16:36:13.057Z,5.10
2017-07-08T16:38:42.750Z,4.50
2017-07-08T16:41:20.168Z,3.77
2017-07-08T16:43:52.364Z,4.73
2017-07-08T16:46:22.026Z,4.23
2017-07-08T16:48:51.821Z,4.27
2017-07-08T16:51:21.624Z,4.57
2017-07-08T16:53:51.379Z,4.23
2017-07-08T16:56:21.059Z,4.00
2017-07-08T16:58:50.746Z,4.10
2017-07-08T17:01:20.619Z,3.57
2017-07-08T17:03:51.088Z,3.20
2017-07-08T17:06:20.845Z,5.17
2017-07-08T17:08:50.653Z,3.70
2017-07-08T17:11:20.326Z,3.80
2017-07-08T17:13:50.387Z,3.47
2017-07-08T17:16:20.178Z,3.53
2017-07-08T17:18:50.099Z,3.17
2017-07-08T17:21:19.794Z,4.53
2017-07-08T17:23:50.132Z,3.13
2017-07-08T17:26:19.829Z,4.33
2017-07-08T17:28:50.290Z,3.13
2017-07-08T17:31:20.015Z,3.03
2017-07-08T17:33:49.711Z,3.20
2017-07-08T17:36:19.464Z,3.67
2017-07-08T17:38:49.262Z,3.93
2017-07-08T17:41:18.974Z,3.33
2017-07-08T17:43:55.307Z,3.53
2017-07-08T17:46:27.421Z,4.00
2017-07-08T17:48:57.118Z,3.47
2017-07-08T17:51:26.835Z,4.07
2017-07-08T17:53:57.162Z,3.67
2017-07-08T17:56:26.979Z,3.90
2017-07-08T17:58:56.758Z,3.80
2017-07-08T18:01:26.446Z,4.27
2017-07-08T18:03:56.182Z,3.50
2017-07-08T18:06:25.896Z,3.33
2017-07-08T18:08:55.643Z,3.40
2017-07-08T18:11:25.324Z,3.20
2017-07-08T18:13:55.247Z,3.37
2017-07-08T18:16:24.955Z,3.50
2017-07-08T18:18:54.754Z,4.40
2017-07-08T18:21:24.409Z,3.47
2017-07-08T18:23:54.726Z,3.73
2017-07-08T18:26:24.430Z,3.30
2017-07-08T18:28:54.143Z,3.40
2017-07-08T18:31:23.861Z,3.73
2017-07-08T18:33:53.607Z,3.63
2017-07-08T18:36:24.064Z,3.90
2017-07-08T18:38:53.787Z,3.50
2017-07-08T18:41:24.087Z,3.87
2017-07-08T18:43:53.739Z,4.30
2017-07-08T18:46:31.091Z,3.80
2017-07-08T18:49:01.425Z,3.60
2017-07-08T18:51:31.845Z,4.43
2017-07-08T18:54:01.607Z,3.80
2017-07-08T18:56:31.374Z,3.53
2017-07-08T18:59:01.194Z,3.20
2017-07-08T19:01:30.922Z,3.27
2017-07-08T19:04:01.602Z,3.80
2017-07-08T19:06:32.225Z,3.07
2017-07-08T19:09:01.890Z,3.17
2017-07-08T19:11:31.591Z,3.43
2017-07-08T19:14:01.252Z,4.23
2017-07-08T19:16:31.694Z,3.40
2017-07-08T19:19:01.435Z,3.07
2017-07-08T19:21:31.159Z,4.20
2017-07-08T19:24:00.906Z,3.93
2017-07-08T19:26:30.652Z,3.90
2017-07-08T19:29:00.319Z,3.30
2017-07-08T19:31:30.010Z,4.07
2017-07-08T19:33:59.822Z,5.20
2017-07-08T19:36:29.659Z,3.90
2017-07-08T19:38:59.351Z,4.63
2017-07-08T19:41:29.067Z,4.37
2017-07-08T19:43:58.764Z,4.90
2017-07-08T19:46:28.542Z,5.00
2017-07-08T19:49:02.546Z,4.87
2017-07-08T19:51:37.331Z,4.87
2017-07-08T19:54:07.004Z,5.10
2017-07-08T19:56:36.763Z,5.57
2017-07-08T19:59:07.174Z,5.90
2017-07-08T20:01:36.889Z,5.97
2017-07-08T20:04:06.622Z,5.70
2017-07-08T20:06:36.332Z,5.93
2017-07-08T20:09:06.054Z,7.20
2017-07-08T20:11:35.710Z,7.00
2017-07-08T20:14:05.542Z,7.00
2017-07-08T20:16:35.930Z,7.73
2017-07-08T20:19:07.143Z,7.60
2017-07-08T20:21:36.863Z,7.17
2017-07-08T20:24:06.596Z,8.47
2017-07-08T20:26:36.315Z,13.20
2017-07-08T20:29:06.101Z,18.17
2017-07-08T20:31:35.809Z,21.30
2017-07-08T20:34:05.604Z,33.20
2017-07-08T20:36:35.331Z,37.73
2017-07-08T20:39:06.191Z,29.37
2017-07-08T20:41:35.883Z,26.83
2017-07-08T20:44:05.760Z,12.90
2017-07-08T20:46:35.438Z,11.93
2017-07-08T20:49:05.183Z,11.47
2017-07-08T20:51:42.031Z,11.73
2017-07-08T20:54:14.686Z,11.73
2017-07-08T20:56:44.441Z,9.77
2017-07-08T20:59:14.271Z,10.87
2017-07-08T21:01:43.971Z,8.87
2017-07-08T21:04:13.650Z,8.07
2017-07-08T21:06:43.305Z,7.57
2017-07-08T21:09:13.779Z,7.63
2017-07-08T21:11:44.187Z,6.50
2017-07-08T21:14:14.539Z,7.00
2017-07-08T21:16:44.192Z,6.30
2017-07-08T21:19:13.939Z,6.33
2017-07-08T21:21:43.666Z,6.97
2017-07-08T21:24:13.355Z,6.37
2017-07-08T21:26:43.135Z,6.80
2017-07-08T21:29:12.934Z,6.50
2017-07-08T21:31:42.698Z,6.97
2017-07-08T21:34:12.483Z,8.03
2017-07-08T21:36:42.244Z,6.70
2017-07-08T21:39:12.526Z,7.00
2017-07-08T21:41:42.238Z,6.67
2017-07-08T21:44:11.943Z,7.10
2017-07-08T21:46:41.635Z,6.43
2017-07-08T21:49:11.386Z,7.20
2017-07-08T21:51:41.180Z,6.43
2017-07-08T21:54:10.938Z,6.63
2017-07-08T21:56:40.702Z,6.40
2017-07-08T21:59:10.458Z,7.17
2017-07-08T22:01:40.912Z,6.30
2017-07-08T22:04:10.778Z,6.50
2017-07-08T22:06:40.477Z,7.27
2017-07-08T22:09:10.148Z,6.70
2017-07-08T22:11:39.940Z,7.03
2017-07-08T22:14:09.639Z,6.27
2017-07-08T22:16:39.400Z,6.30
2017-07-08T22:19:09.063Z,6.43
2017-07-08T22:21:38.734Z,6.43
2017-07-08T22:24:09.195Z,6.67
2017-07-08T22:26:39.743Z,8.00
2017-07-08T22:29:09.547Z,6.13
2017-07-08T22:31:39.327Z,7.40
2017-07-08T22:34:09.186Z,6.50
2017-07-08T22:36:39.002Z,6.30
2017-07-08T22:39:09.016Z,6.00
2017-07-08T22:41:39.472Z,6.93
2017-07-08T22:44:09.534Z,7.20
2017-07-08T22:46:39.396Z,6.60
2017-07-08T22:49:09.729Z,6.77
2017-07-08T22:51:39.633Z,6.63
2017-07-08T22:54:09.458Z,7.40
2017-07-08T22:56:45.107Z,6.73
2017-07-08T22:59:14.830Z,7.20
2017-07-08T23:01:44.744Z,6.23
2017-07-08T23:04:14.855Z,6.73
2017-07-08T23:06:44.669Z,7.30
2017-07-08T23:09:14.490Z,6.47
2017-07-08T23:11:44.308Z,6.30
2017-07-08T23:14:14.742Z,6.50
2017-07-08T23:16:44.555Z,7.40
2017-07-08T23:19:16.130Z,7.60
2017-07-08T23:21:46.032Z,6.77
2017-07-08T23:24:15.844Z,6.87
2017-07-08T23:26:45.862Z,7.00
2017-07-08T23:29:15.673Z,6.97
2017-07-08T23:31:45.490Z,7.20
2017-07-08T23:34:15.188Z,7.77
2017-07-08T23:36:45.021Z,7.57
2017-07-08T23:39:14.837Z,7.10
2017-07-08T23:41:44.762Z,7.47
2017-07-08T23:44:14.578Z,7.10
2017-07-08T23:46:44.385Z,6.80
2017-07-08T23:49:14.208Z,6.93
2017-07-08T23:51:43.904Z,6.80
2017-07-08T23:54:13.636Z,7.20
2017-07-08T23:56:44.260Z,6.97
2017-07-08T23:59:24.158Z,6.50
